createdAt,value
2022-08-11T00:01:15.383Z,45.50
2022-08-11T00:03:48.768Z,44.95
2022-08-11T00:06:23.972Z,46.47
2022-08-11T00:08:51.886Z,46.12
2022-08-11T00:11:20.034Z,45.29
2022-08-11T00:13:49.379Z,45.14
2022-08-11T00:16:22.611Z,44.64
2022-08-11T00:18:53.188Z,44.53
2022-08-11T00:22:03.051Z,45.04
2022-08-11T00:24:13.136Z,45.88
2022-08-11T00:26:39.991Z,45.94
2022-08-11T00:29:11.589Z,46.52
2022-08-11T00:31:44.006Z,46.75
2022-08-11T00:34:12.728Z,46.79
2022-08-11T00:37:03.092Z,48.09
2022-08-11T00:39:34.308Z,47.68
2022-08-11T00:42:16.095Z,48.20
2022-08-11T00:45:22.675Z,47.62
2022-08-11T00:48:08.192Z,47.17
2022-08-11T00:50:59.081Z,47.12
2022-08-11T00:53:33.970Z,47.76
2022-08-11T00:56:28.636Z,46.67
2022-08-11T00:58:58.456Z,46.89
2022-08-11T01:02:05.845Z,46.35
2022-08-11T01:04:57.467Z,46.13
2022-08-11T01:08:01.868Z,45.69
2022-08-11T01:10:57.436Z,45.21
2022-08-11T01:14:19.605Z,46.46
2022-08-11T01:17:48.383Z,45.84
2022-08-11T01:20:47.678Z,45.78
2022-08-11T01:23:33.931Z,45.13
2022-08-11T01:26:25.167Z,45.18
2022-08-11T01:29:00.756Z,45.50
2022-08-11T01:31:49.148Z,44.83
2022-08-11T01:34:27.940Z,45.55
2022-08-11T01:36:57.041Z,45.29
2022-08-11T01:39:57.965Z,45.49
2022-08-11T01:43:33.448Z,45.79
2022-08-11T01:46:12.420Z,45.36
2022-08-11T01:48:50.028Z,45.68
2022-08-11T01:52:02.099Z,45.20
2022-08-11T01:54:34.701Z,44.95
2022-08-11T01:57:19.752Z,45.22
2022-08-11T01:59:51.454Z,45.96
2022-08-11T02:02:48.623Z,45.58
2022-08-11T02:05:22.055Z,45.59
2022-08-11T02:08:16.756Z,45.88
2022-08-11T02:11:35.147Z,45.65
2022-08-11T02:14:22.950Z,45.72
2022-08-11T02:17:13.589Z,45.93
2022-08-11T02:20:19.891Z,45.47
2022-08-11T02:23:05.441Z,45.59
2022-08-11T02:25:52.526Z,45.49
2022-08-11T02:28:46.775Z,45.38
2022-08-11T02:32:25.927Z,45.44
2022-08-11T02:35:01.510Z,45.44
2022-08-11T02:37:33.371Z,45.15
2022-08-11T02:40:03.487Z,44.89
2022-08-11T02:42:39.884Z,44.78
2022-08-11T02:45:31.289Z,45.16
2022-08-11T02:48:16.606Z,44.99
2022-08-11T02:51:10.527Z,44.97
2022-08-11T02:53:56.339Z,45.00
2022-08-11T02:56:50.226Z,45.28
2022-08-11T02:59:52.447Z,45.02
2022-08-11T03:02:44.144Z,46.11
2022-08-11T03:05:12.000Z,45.81
2022-08-11T03:08:16.198Z,45.83
2022-08-11T03:11:18.830Z,45.97
2022-08-11T03:14:25.917Z,46.06
2022-08-11T03:17:04.390Z,45.77
2022-08-11T03:19:31.462Z,45.88
2022-08-11T03:22:23.318Z,45.78
2022-08-11T03:24:54.942Z,45.80
2022-08-11T03:27:21.661Z,45.96
2022-08-11T03:30:02.280Z,46.21
2022-08-11T03:33:22.025Z,45.85
2022-08-11T03:36:09.251Z,46.09
2022-08-11T03:38:56.688Z,45.74
2022-08-11T03:42:03.648Z,46.11
2022-08-11T03:45:03.038Z,46.32
2022-08-11T03:47:32.528Z,46.15
2022-08-11T03:50:22.709Z,46.57
2022-08-11T03:53:17.239Z,46.42
2022-08-11T03:56:07.712Z,46.74
2022-08-11T03:58:42.064Z,46.70
2022-08-11T04:01:42.069Z,46.96
2022-08-11T04:04:51.229Z,46.97
2022-08-11T04:07:47.634Z,46.59
2022-08-11T04:10:46.254Z,46.65
2022-08-11T04:13:50.206Z,47.55
2022-08-11T04:16:31.853Z,47.53
2022-08-11T04:19:07.409Z,47.42
2022-08-11T04:21:59.416Z,47.32
2022-08-11T04:25:02.823Z,47.40
2022-08-11T04:27:41.641Z,47.15
2022-08-11T04:30:14.746Z,47.50
2022-08-11T04:32:58.757Z,47.34
2022-08-11T04:35:54.516Z,47.81
2022-08-11T04:38:59.057Z,46.55
2022-08-11T04:42:19.908Z,46.97
2022-08-11T04:44:52.546Z,46.40
2022-08-11T04:48:05.796Z,46.13
2022-08-11T04:51:42.164Z,46.33
2022-08-11T04:54:45.219Z,46.55
2022-08-11T04:58:06.914Z,47.12
2022-08-11T05:01:14.345Z,46.11
2022-08-11T05:04:06.611Z,46.39
2022-08-11T05:06:50.556Z,45.95
2022-08-11T05:09:28.597Z,47.04
2022-08-11T05:12:37.116Z,46.73
2022-08-11T05:15:24.471Z,46.34
2022-08-11T05:18:27.860Z,45.34
2022-08-11T05:21:16.345Z,45.11
2022-08-11T05:24:13.821Z,46.07
2022-08-11T05:27:11.349Z,46.00
2022-08-11T05:30:10.766Z,45.38
2022-08-11T05:33:01.941Z,44.80
2022-08-11T05:36:03.155Z,44.61
2022-08-11T05:38:52.960Z,45.79
2022-08-11T05:41:41.997Z,44.58
2022-08-11T05:44:29.135Z,45.54
2022-08-11T05:47:15.990Z,45.61
2022-08-11T05:50:08.785Z,46.27
2022-08-11T05:53:04.585Z,44.88
2022-08-11T05:56:01.886Z,45.23
2022-08-11T05:58:42.558Z,45.88
2022-08-11T06:01:12.102Z,44.56
2022-08-11T06:04:01.376Z,45.51
2022-08-11T06:06:29.430Z,45.90
2022-08-11T06:08:58.139Z,46.07
2022-08-11T06:11:43.256Z,45.25
2022-08-11T06:14:13.161Z,46.03
2022-08-11T06:16:43.037Z,45.30
2022-08-11T06:19:10.533Z,45.43
2022-08-11T06:21:38.357Z,45.50
2022-08-11T06:24:15.499Z,45.62
2022-08-11T06:27:11.342Z,45.34
2022-08-11T06:29:47.733Z,44.13
2022-08-11T06:32:15.999Z,43.80
2022-08-11T06:34:48.648Z,43.28
2022-08-11T06:37:27.340Z,43.23
2022-08-11T06:40:18.609Z,43.59
2022-08-11T06:43:23.698Z,43.34
2022-08-11T06:46:05.956Z,43.09
2022-08-11T06:48:34.302Z,42.60
2022-08-11T06:51:12.499Z,42.70
2022-08-11T06:53:57.557Z,41.30
2022-08-11T06:57:26.470Z,40.67
2022-08-11T07:00:04.761Z,42.26
2022-08-11T07:02:37.189Z,41.23
2022-08-11T07:05:10.645Z,41.44
2022-08-11T07:08:34.444Z,40.11
2022-08-11T07:11:48.643Z,39.32
2022-08-11T07:14:39.692Z,39.41
2022-08-11T07:17:11.252Z,39.37
2022-08-11T07:20:01.951Z,38.49
2022-08-11T07:22:51.222Z,38.61
2022-08-11T07:25:37.141Z,38.74
2022-08-11T07:28:29.484Z,37.96
2022-08-11T07:31:04.778Z,37.36
2022-08-11T07:34:07.164Z,36.80
2022-08-11T07:36:31.380Z,36.03
2022-08-11T07:39:00.355Z,36.74
2022-08-11T07:41:31.133Z,36.72
2022-08-11T07:44:09.273Z,38.84
2022-08-11T07:46:59.922Z,37.69
2022-08-11T07:49:50.163Z,37.70
2022-08-11T07:52:26.959Z,36.18
2022-08-11T07:54:56.017Z,36.05
2022-08-11T07:58:14.667Z,36.87
2022-08-11T08:00:51.612Z,35.63
2022-08-11T08:03:38.972Z,36.02
2022-08-11T08:06:40.707Z,35.54
2022-08-11T08:09:27.494Z,35.22
2022-08-11T08:12:14.413Z,34.42
2022-08-11T08:15:01.223Z,35.10
2022-08-11T08:18:20.996Z,36.02
2022-08-11T08:20:45.619Z,35.57
2022-08-11T08:23:13.734Z,34.67
2022-08-11T08:25:43.189Z,34.18
2022-08-11T08:28:14.628Z,34.34
2022-08-11T08:30:50.783Z,34.85
2022-08-11T08:33:26.585Z,34.76
2022-08-11T08:36:16.915Z,33.63
2022-08-11T08:38:48.795Z,33.33
2022-08-11T08:41:22.977Z,33.18
2022-08-11T08:43:53.714Z,34.04
2022-08-11T08:46:28.024Z,34.39
2022-08-11T08:48:55.540Z,33.03
2022-08-11T08:52:01.492Z,32.79
2022-08-11T08:54:34.160Z,32.31
2022-08-11T08:57:05.361Z,31.87
2022-08-11T08:59:49.016Z,32.82
2022-08-11T09:02:33.998Z,32.58
2022-08-11T09:05:04.577Z,32.96
2022-08-11T09:07:38.822Z,31.57
2022-08-11T09:10:10.823Z,32.83
2022-08-11T09:12:40.784Z,33.02
2022-08-11T09:15:10.534Z,31.34
2022-08-11T09:17:42.047Z,31.38
2022-08-11T09:20:13.233Z,31.57
2022-08-11T09:26:11.091Z,33.40
2022-08-11T09:28:38.207Z,33.27
2022-08-11T09:31:06.854Z,32.05
2022-08-11T09:33:34.064Z,32.17
2022-08-11T09:36:24.037Z,31.10
2022-08-11T09:39:11.564Z,31.13
2022-08-11T09:41:55.615Z,32.38
2022-08-11T09:44:46.108Z,31.56
2022-08-11T09:47:21.974Z,31.75
2022-08-11T09:49:50.643Z,31.94
2022-08-11T09:52:18.474Z,31.67
2022-08-11T09:54:50.232Z,33.16
2022-08-11T09:57:40.298Z,32.96
2022-08-11T10:00:13.275Z,31.58
2022-08-11T10:02:46.307Z,31.79
2022-08-11T10:05:35.855Z,31.21
2022-08-11T10:08:04.409Z,29.89
2022-08-11T10:10:35.941Z,31.74
2022-08-11T10:13:44.010Z,29.60
2022-08-11T10:16:15.317Z,30.38
2022-08-11T10:18:51.611Z,30.19
2022-08-11T10:21:28.461Z,31.70
2022-08-11T10:24:17.699Z,30.84
2022-08-11T10:26:55.182Z,30.30
2022-08-11T10:29:44.417Z,29.76
2022-08-11T10:32:32.779Z,29.63
2022-08-11T10:35:09.192Z,29.42
2022-08-11T10:38:07.220Z,28.88
2022-08-11T10:40:25.716Z,28.85
2022-08-11T10:43:10.548Z,28.67
2022-08-11T10:45:57.737Z,28.47
2022-08-11T10:48:27.953Z,28.82
2022-08-11T10:51:14.546Z,28.15
2022-08-11T10:54:07.156Z,27.48
2022-08-11T10:56:59.014Z,26.97
2022-08-11T10:59:28.309Z,29.04
2022-08-11T11:01:55.522Z,27.53
2022-08-11T11:04:45.585Z,27.03
2022-08-11T11:07:24.970Z,27.19
2022-08-11T11:09:58.128Z,27.16
2022-08-11T11:12:50.195Z,26.94
2022-08-11T11:15:38.921Z,27.41
2022-08-11T11:18:18.799Z,27.13
2022-08-11T11:20:52.345Z,27.86
2022-08-11T11:23:34.113Z,27.36
2022-08-11T11:26:27.581Z,27.44
2022-08-11T11:29:09.788Z,27.38
2022-08-11T11:32:00.848Z,28.24
2022-08-11T11:35:18.134Z,27.23
2022-08-11T11:37:56.182Z,27.06
2022-08-11T11:40:32.347Z,28.98
2022-08-11T11:43:00.384Z,28.80
2022-08-11T11:45:27.498Z,29.18
2022-08-11T11:47:58.353Z,29.40
2022-08-11T11:50:34.455Z,29.36
2022-08-11T11:53:05.923Z,29.10
2022-08-11T11:55:35.113Z,29.13
2022-08-11T11:58:22.911Z,28.61
2022-08-11T12:01:11.044Z,28.76
2022-08-11T12:03:39.547Z,29.01
2022-08-11T12:06:08.574Z,29.17
2022-08-11T12:08:36.802Z,29.16
2022-08-11T12:11:24.954Z,29.47
2022-08-11T12:13:58.753Z,29.24
2022-08-11T12:16:33.230Z,29.14
2022-08-11T12:19:11.954Z,29.79
2022-08-11T12:22:03.460Z,29.76
2022-08-11T12:24:50.903Z,29.51
2022-08-11T12:27:24.228Z,30.27
2022-08-11T12:30:01.013Z,30.57
2022-08-11T12:32:31.280Z,30.72
2022-08-11T12:34:58.354Z,31.45
2022-08-11T12:37:31.328Z,30.29
2022-08-11T12:40:49.893Z,29.93
2022-08-11T12:43:38.084Z,29.83
2022-08-11T12:46:23.713Z,29.34
2022-08-11T12:49:16.259Z,29.45
2022-08-11T12:52:11.653Z,29.80
2022-08-11T12:54:57.910Z,31.38
2022-08-11T12:57:51.267Z,31.41
2022-08-11T13:00:37.900Z,32.04
2022-08-11T13:03:27.069Z,31.42
2022-08-11T13:05:57.229Z,30.62
2022-08-11T13:08:25.868Z,31.76
2022-08-11T13:11:13.302Z,30.69
2022-08-11T13:13:54.702Z,31.16
2022-08-11T13:16:28.053Z,31.23
2022-08-11T13:18:57.564Z,30.41
2022-08-11T13:21:26.198Z,29.41
2022-08-11T13:23:59.656Z,28.63
2022-08-11T13:26:43.522Z,29.45
2022-08-11T13:29:17.494Z,30.33
2022-08-11T13:31:45.763Z,29.45
2022-08-11T13:34:13.619Z,29.06
2022-08-11T13:36:41.645Z,28.28
2022-08-11T13:39:09.563Z,28.00
2022-08-11T13:41:39.285Z,27.70
2022-08-11T13:44:12.151Z,26.98
2022-08-11T13:46:40.870Z,26.86
2022-08-11T13:49:12.192Z,26.85
2022-08-11T13:51:40.166Z,26.31
2022-08-11T13:54:10.259Z,25.82
2022-08-11T13:56:39.865Z,26.29
2022-08-11T13:59:10.598Z,25.80
2022-08-11T14:02:19.836Z,26.16
2022-08-11T14:04:37.364Z,25.51
2022-08-11T14:07:08.039Z,25.97
2022-08-11T14:09:41.685Z,24.95
2022-08-11T14:12:36.299Z,24.62
2022-08-11T14:15:10.467Z,24.49
2022-08-11T14:17:47.303Z,24.40
2022-08-11T14:20:39.171Z,23.36
2022-08-11T14:23:07.813Z,23.72
2022-08-11T14:26:00.744Z,24.19
2022-08-11T14:28:34.010Z,23.32
2022-08-11T14:31:05.346Z,23.45
2022-08-11T14:34:00.947Z,23.72
2022-08-11T14:36:23.152Z,23.52
2022-08-11T14:38:50.751Z,23.25
2022-08-11T14:41:37.059Z,23.22
2022-08-11T14:44:44.588Z,23.72
2022-08-11T14:47:23.045Z,23.87
2022-08-11T14:50:09.848Z,24.20
2022-08-11T14:52:49.511Z,24.96
2022-08-11T14:55:37.364Z,24.87
2022-08-11T14:58:05.216Z,24.77
2022-08-11T15:00:34.810Z,25.09
2022-08-11T15:03:10.504Z,24.42
2022-08-11T15:06:02.626Z,24.34
2022-08-11T15:08:53.576Z,24.02
2022-08-11T15:11:49.427Z,24.92
2022-08-11T15:14:38.781Z,25.53
2022-08-11T15:17:10.227Z,26.50
2022-08-11T15:20:00.672Z,26.01
2022-08-11T15:22:46.643Z,27.49
2022-08-11T15:25:14.217Z,26.49
2022-08-11T15:28:02.881Z,26.62
2022-08-11T15:30:49.259Z,26.07
2022-08-11T15:33:37.097Z,25.83
2022-08-11T15:36:27.257Z,25.90
2022-08-11T15:39:07.004Z,25.50
2022-08-11T15:42:03.841Z,25.45
2022-08-11T15:45:02.733Z,25.72
2022-08-11T15:47:37.766Z,26.05
2022-08-11T15:50:11.734Z,26.37
2022-08-11T15:52:49.348Z,26.40
2022-08-11T15:55:17.376Z,26.81
2022-08-11T15:58:06.349Z,27.35
2022-08-11T16:00:58.881Z,27.87
2022-08-11T16:04:06.706Z,27.78
2022-08-11T16:07:00.087Z,28.16
2022-08-11T16:09:47.042Z,28.32
2022-08-11T16:12:23.103Z,28.31
2022-08-11T16:15:11.594Z,28.64
2022-08-11T16:17:44.365Z,29.11
2022-08-11T16:20:14.205Z,28.75
2022-08-11T16:22:55.132Z,28.75
2022-08-11T16:27:03.323Z,29.27
2022-08-11T16:28:20.689Z,28.97
2022-08-11T16:30:49.065Z,28.86
2022-08-11T16:33:48.585Z,28.88
2022-08-11T16:36:24.454Z,28.66
2022-08-11T16:38:53.744Z,29.20
2022-08-11T16:41:42.604Z,29.34
2022-08-11T16:44:37.765Z,29.14
2022-08-11T16:47:08.592Z,29.03
2022-08-11T16:49:38.905Z,29.42
2022-08-11T16:52:12.224Z,28.99
2022-08-11T16:54:44.391Z,29.08
2022-08-11T16:57:44.886Z,29.66
2022-08-11T17:00:15.410Z,29.21
2022-08-11T17:03:04.667Z,30.09
2022-08-11T17:05:55.138Z,30.04
2022-08-11T17:09:04.742Z,30.50
2022-08-11T17:11:56.067Z,30.10
2022-08-11T17:14:35.489Z,29.76
2022-08-11T17:17:14.736Z,29.68
2022-08-11T17:20:38.393Z,29.50
2022-08-11T17:22:56.606Z,30.26
2022-08-11T17:25:28.357Z,30.05
2022-08-11T17:27:56.776Z,29.71
2022-08-11T17:30:45.824Z,29.98
2022-08-11T17:33:33.150Z,30.08
2022-08-11T17:36:02.357Z,30.02
2022-08-11T17:38:30.505Z,30.20
2022-08-11T17:41:23.254Z,30.02
2022-08-11T17:44:12.615Z,30.75
2022-08-11T17:47:03.585Z,29.79
2022-08-11T17:49:37.602Z,30.25
2022-08-11T17:52:25.425Z,29.98
2022-08-11T17:55:13.421Z,30.22
2022-08-11T17:58:00.364Z,30.34
2022-08-11T18:00:28.102Z,30.49
2022-08-11T18:03:16.644Z,30.64
2022-08-11T18:05:46.100Z,31.00
2022-08-11T18:08:32.868Z,31.07
2022-08-11T18:12:11.239Z,31.02
2022-08-11T18:14:27.504Z,30.73
2022-08-11T18:17:13.260Z,30.94
2022-08-11T18:19:59.138Z,31.29
2022-08-11T18:22:52.085Z,31.59
2022-08-11T18:25:46.493Z,31.07
2022-08-11T18:28:35.610Z,30.71
2022-08-11T18:31:23.197Z,30.50
2022-08-11T18:34:13.589Z,30.95
2022-08-11T18:37:20.611Z,30.67
2022-08-11T18:40:14.924Z,31.02
2022-08-11T18:43:02.936Z,32.77
2022-08-11T18:45:52.805Z,33.27
2022-08-11T18:48:55.117Z,32.69
2022-08-11T18:51:42.905Z,32.31
2022-08-11T18:54:30.814Z,32.15
2022-08-11T18:57:20.755Z,32.16
2022-08-11T19:00:08.567Z,32.40
2022-08-11T19:02:57.560Z,32.86
2022-08-11T19:06:31.918Z,32.02
2022-08-11T19:08:55.941Z,32.45
2022-08-11T19:11:44.080Z,31.87
2022-08-11T19:14:31.667Z,32.90
2022-08-11T19:17:44.854Z,32.96
2022-08-11T19:20:29.864Z,32.91
2022-08-11T19:23:16.824Z,32.93
2022-08-11T19:26:03.817Z,33.03
2022-08-11T19:28:51.779Z,33.00
2022-08-11T19:31:43.800Z,33.13
2022-08-11T19:34:33.765Z,33.18
2022-08-11T19:37:23.690Z,33.56
2022-08-11T19:40:12.469Z,33.84
2022-08-11T19:43:00.867Z,34.47
2022-08-11T19:45:52.141Z,34.23
2022-08-11T19:48:43.073Z,34.03
2022-08-11T19:51:30.284Z,35.87
2022-08-11T19:54:17.134Z,35.97
2022-08-11T19:57:03.957Z,36.42
2022-08-11T19:59:51.765Z,36.88
2022-08-11T20:02:37.749Z,36.61
2022-08-11T20:05:25.205Z,36.46
2022-08-11T20:08:12.893Z,36.35
2022-08-11T20:10:59.877Z,36.23
2022-08-11T20:13:46.773Z,36.46
2022-08-11T20:16:38.303Z,36.62
2022-08-11T20:19:26.363Z,36.81
2022-08-11T20:22:34.352Z,36.76
2022-08-11T20:25:21.557Z,37.10
2022-08-11T20:28:08.915Z,37.81
2022-08-11T20:30:55.284Z,37.55
2022-08-11T20:33:42.627Z,37.41
2022-08-11T20:36:29.391Z,38.19
2022-08-11T20:39:17.574Z,37.37
2022-08-11T20:42:05.039Z,37.91
2022-08-11T20:44:51.859Z,37.34
2022-08-11T20:47:59.206Z,37.90
2022-08-11T20:50:45.978Z,37.98
2022-08-11T20:53:35.911Z,38.01
2022-08-11T20:56:28.945Z,37.96
2022-08-11T20:59:18.445Z,38.27
2022-08-11T21:02:10.058Z,37.90
2022-08-11T21:05:00.436Z,38.39
2022-08-11T21:07:56.957Z,37.79
2022-08-11T21:10:53.424Z,38.10
2022-08-11T21:13:43.578Z,38.39
2022-08-11T21:16:35.459Z,38.28
2022-08-11T21:19:59.629Z,37.79
2022-08-11T21:22:59.142Z,38.14
2022-08-11T21:25:54.460Z,39.17
2022-08-11T21:28:40.723Z,39.00
2022-08-11T21:31:28.169Z,39.64
2022-08-11T21:34:15.080Z,38.59
2022-08-11T21:37:03.479Z,38.90
2022-08-11T21:39:50.437Z,39.98
2022-08-11T21:42:38.187Z,39.38
2022-08-11T21:45:26.165Z,39.39
2022-08-11T21:48:14.636Z,39.27
2022-08-11T21:50:59.879Z,38.95
2022-08-11T21:53:46.683Z,39.02
2022-08-11T21:56:33.061Z,39.34
2022-08-11T21:59:20.377Z,38.74
2022-08-11T22:02:12.446Z,38.92
2022-08-11T22:05:00.559Z,39.23
2022-08-11T22:07:47.385Z,38.84
2022-08-11T22:10:40.899Z,39.30
2022-08-11T22:13:30.094Z,39.49
2022-08-11T22:16:16.869Z,38.87
2022-08-11T22:19:04.968Z,39.21
2022-08-11T22:22:02.328Z,38.71
2022-08-11T22:24:50.342Z,39.13
2022-08-11T22:27:36.022Z,39.42
2022-08-11T22:30:21.276Z,40.17
2022-08-11T22:33:07.233Z,39.71
2022-08-11T22:35:54.212Z,39.94
2022-08-11T22:38:40.608Z,39.46
2022-08-11T22:41:26.056Z,39.76
2022-08-11T22:44:11.610Z,39.97
2022-08-11T22:46:57.560Z,39.83
2022-08-11T22:49:57.672Z,39.90
2022-08-11T22:52:46.428Z,39.78
2022-08-11T22:55:33.747Z,39.39
2022-08-11T22:58:21.115Z,39.53
2022-08-11T23:01:08.032Z,39.75
2022-08-11T23:03:54.305Z,39.66
2022-08-11T23:06:41.139Z,39.87
2022-08-11T23:09:29.728Z,39.63
2022-08-11T23:12:16.146Z,40.18
2022-08-11T23:15:02.668Z,40.06
2022-08-11T23:17:49.003Z,39.67
2022-08-11T23:20:44.666Z,39.87
2022-08-11T23:23:36.254Z,39.80
2022-08-11T23:26:22.516Z,39.78
2022-08-11T23:29:07.819Z,39.63
2022-08-11T23:31:54.957Z,39.83
2022-08-11T23:35:03.997Z,39.67
2022-08-11T23:37:51.464Z,39.96
2022-08-11T23:40:36.820Z,40.69
2022-08-11T23:43:22.894Z,40.33
2022-08-11T23:46:08.314Z,40.10
2022-08-11T23:48:56.755Z,40.93
2022-08-11T23:51:43.901Z,40.35
2022-08-11T23:54:33.837Z,40.03
2022-08-11T23:57:23.228Z,40.17
